Sirena 3 — WDD7469 — position and weather

sailwx.info

Track history (hours):
 
Tides and Currents Weather Stations Pressure Air Temp Water Temp Dewpoint Dewpoint Depression Visibility Wind Speed Wind Dir Waves Ship Positions

Sirena 3

Owner: Loeb, Steven, Stamford, CT. More information available from US FCC via Universal Licensing System and Coast Guard Vessel Documentation Center.

Last reported at 2016-Apr-24 16:07 UTC. Time now 2016-May-26 16:27 UTC.
Position N 41°12' W 072°35'.
Warning: this ship's position is 32 days out of date.

Length 18 m.

Type: Sailing vessel. MMSI: 367186880.

Date/timePositionNaut miles runAvg speedWind from/ knotsBaromVisibWave heightAir tempDewpointWater temp
2016-Apr-24 16:07N 41°12' W 072°35'5 8.2
2016-Apr-24 15:32N 41°14' W 072°29'2 1.9
2016-Apr-24 14:27N 41°16' W 072°28'0 0.0
2016-Apr-22 20:11N 41°16' W 072°28'0 0.0
2016-Apr-20 21:23N 41°16' W 072°29'0 0.0
2016-Apr-20 20:29N 41°16' W 072°29'0 0.0
2016-Apr-20 19:29N 41°16' W 072°29'0 0.0
2016-Apr-20 18:32N 41°16' W 072°29'0 0.0
2016-Apr-20 17:29N 41°16' W 072°29'0 0.0
2016-Apr-20 16:29N 41°16' W 072°29'1 1.0
2016-Apr-20 15:33N 41°16' W 072°28'1 0.9
2016-Apr-20 14:31N 41°16' W 072°29'0 0.0
2016-Apr-20 13:31N 41°16' W 072°29'  
Track history (hours):
 
Tides and Currents Weather Stations Pressure Air Temp Water Temp Dewpoint Dewpoint Depression Visibility Wind Speed Wind Dir Waves Ship Positions

Sirena 3

Owner: Loeb, Steven, Stamford, CT. More information available from US FCC via Universal Licensing System and Coast Guard Vessel Documentation Center.

Last reported at 2016-Apr-24 16:07 UTC. Time now 2016-May-26 16:27 UTC.
Position N 41°12' W 072°35'.
Warning: this ship's position is 32 days out of date.

Length 18 m.

Type: Sailing vessel. MMSI: 367186880.

Date/timePositionNaut miles runAvg speedWind from/ knotsBaromVisibWave heightAir tempDewpointWater temp
2016-Apr-24 16:07N 41°12' W 072°35'5 8.2
2016-Apr-24 15:32N 41°14' W 072°29'2 1.9
2016-Apr-24 14:27N 41°16' W 072°28'0 0.0
2016-Apr-22 20:11N 41°16' W 072°28'0 0.0
2016-Apr-20 21:23N 41°16' W 072°29'0 0.0
2016-Apr-20 20:29N 41°16' W 072°29'0 0.0
2016-Apr-20 19:29N 41°16' W 072°29'0 0.0
2016-Apr-20 18:32N 41°16' W 072°29'0 0.0
2016-Apr-20 17:29N 41°16' W 072°29'0 0.0
2016-Apr-20 16:29N 41°16' W 072°29'1 1.0
2016-Apr-20 15:33N 41°16' W 072°28'1 0.9
2016-Apr-20 14:31N 41°16' W 072°29'0 0.0
2016-Apr-20 13:31N 41°16' W 072°29'  

Dump ship's entire track history